Darstellungsparameter: Aktuell verwendete Einstellungen:
Skalierung der Graphiken ... ?
xyx+y,   Skalierungsfaktor:      Skalierung: Modus: x, Faktor: 1
Darstellungszeitraum ... ?
Vom - - bis: - -   Zeitraum: 05.11.2015 - 05.11.2015
Min/Max/Avg-Anzeige ... ?
Zeige MMA aktuell
Zeige MMA Monat
Zeige MMA alles
Zeige --A aktuell
Zeige --A Monat
Zeige --A alles
Keine MMA-Anzeige
MMA:
Keine MMA-Graphiken
MMA-Basis: 05.11.2015 - 05.11.2015
Quicknavigation für Darstellung... ?
Tage:      1T, 2T, 3T, 5T -1T -2T -3T -5T +1T +2T +3T +5T
Wochen: 1W, 2W, 3W -1W -2W -3W +1W +2W +3W
Monate: 1M, 3M, 6M -1M -3M -6M +1M +3M +6M
Jahre:    1J, 3J, 5J, 10J -1J -3J -5J -10J +1J +3J +5J +10J
Nutze für die Darstellung ... ?
Originaldaten oder Mittelwerte auf ...
Stundenbasis Tagesbasis Wochenbasis
Monatsbasis Jahresbasis      Datenbasis: Original-Daten
Darstellen als:
Statistik (Auto) Statistik J:M      Darstellung:
Zur Graphik,    zurück zur Übersicht aller Sensoren.
 
Tabellarische Datenbersicht: ?
 
Sensor: Nr:Datum:Temp:Feuchte:Taupunkt:
Aussen-T/F 1 05-11-2015 00:00:00 8.5 C 96 % 7.9 C
2 05-11-2015 00:05:00 8.4 C 96 % 7.8 C
3 05-11-2015 00:10:00 8.5 C 96 % 7.9 C
4 05-11-2015 00:15:00 8.6 C 96 % 8 C
5 05-11-2015 00:20:00 8.6 C 96 % 8 C
6 05-11-2015 00:25:00 8.6 C 96 % 8 C
7 05-11-2015 00:30:00 8.6 C 96 % 8 C
8 05-11-2015 00:35:00 8.5 C 96 % 7.9 C
9 05-11-2015 00:40:00 8.4 C 96 % 7.8 C
10 05-11-2015 00:45:00 8.4 C 96 % 7.8 C
11 05-11-2015 00:50:00 8.4 C 96 % 7.8 C
12 05-11-2015 00:55:00 8.4 C 96 % 7.8 C
13 05-11-2015 01:00:00 8.3 C 96 % 7.7 C
14 05-11-2015 01:05:00 8.3 C 96 % 7.7 C
15 05-11-2015 01:10:00 8.4 C 96 % 7.8 C
16 05-11-2015 01:15:00 8.4 C 96 % 7.8 C
17 05-11-2015 01:20:00 8.5 C 96 % 7.9 C
18 05-11-2015 01:25:00 8.6 C 96 % 8 C
19 05-11-2015 01:30:00 8.7 C 96 % 8.1 C
20 05-11-2015 01:35:00 8.8 C 97 % 8.35 C
21 05-11-2015 01:40:00 8.9 C 96 % 8.3 C
22 05-11-2015 01:45:00 8.9 C 96 % 8.3 C
23 05-11-2015 01:50:00 8.9 C 96 % 8.3 C
24 05-11-2015 01:55:00 8.9 C 96 % 8.3 C
25 05-11-2015 02:00:00 8.9 C 96 % 8.3 C
Sensor: Nr:Datum:Temp:Feuchte:Taupunkt:
Aussen-T/F 26 05-11-2015 02:05:00 8.9 C 96 % 8.3 C
27 05-11-2015 02:10:00 8.9 C 96 % 8.3 C
28 05-11-2015 02:15:00 9.1 C 96 % 8.5 C
29 05-11-2015 02:20:00 9.1 C 97 % 8.65 C
30 05-11-2015 02:25:00 9.2 C 97 % 8.75 C
31 05-11-2015 02:30:00 9.2 C 96 % 8.6 C
32 05-11-2015 02:35:00 9.1 C 96 % 8.5 C
33 05-11-2015 02:40:00 8.9 C 96 % 8.3 C
34 05-11-2015 02:45:00 8.7 C 96 % 8.1 C
35 05-11-2015 02:50:00 8.5 C 96 % 7.9 C
36 05-11-2015 02:55:00 8.4 C 96 % 7.8 C
37 05-11-2015 03:00:00 8.3 C 96 % 7.7 C
38 05-11-2015 03:05:00 8.2 C 96 % 7.6 C
39 05-11-2015 03:10:00 8.1 C 96 % 7.5 C
40 05-11-2015 03:15:00 8 C 96 % 7.4 C
41 05-11-2015 03:20:00 8 C 96 % 7.4 C
42 05-11-2015 03:25:00 8.1 C 96 % 7.5 C
43 05-11-2015 03:30:00 8.2 C 96 % 7.6 C
44 05-11-2015 03:35:00 8.1 C 96 % 7.5 C
45 05-11-2015 03:40:00 8 C 96 % 7.4 C
46 05-11-2015 03:45:00 7.9 C 96 % 7.3 C
47 05-11-2015 03:50:00 7.9 C 96 % 7.3 C
48 05-11-2015 03:55:00 7.9 C 96 % 7.3 C
49 05-11-2015 04:00:00 7.7 C 96 % 7.1 C
50 05-11-2015 04:05:00 7.8 C 96 % 7.2 C
Sensor: Nr:Datum:Temp:Feuchte:Taupunkt:
Aussen-T/F 51 05-11-2015 04:10:00 7.7 C 96 % 7.1 C
52 05-11-2015 04:15:00 7.7 C 96 % 7.1 C
53 05-11-2015 04:20:00 7.6 C 96 % 7 C
54 05-11-2015 04:25:00 7.7 C 97 % 7.25 C
55 05-11-2015 04:30:00 7.8 C 97 % 7.35 C
56 05-11-2015 04:35:00 7.8 C 97 % 7.35 C
57 05-11-2015 04:40:00 7.8 C 97 % 7.35 C
58 05-11-2015 04:45:00 7.8 C 97 % 7.35 C
59 05-11-2015 04:50:00 7.8 C 97 % 7.35 C
60 05-11-2015 04:55:00 7.8 C 97 % 7.35 C
61 05-11-2015 05:00:00 7.7 C 97 % 7.25 C
62 05-11-2015 05:05:00 7.6 C 96 % 7 C
63 05-11-2015 05:10:00 7.5 C 96 % 6.9 C
64 05-11-2015 05:15:00 7.5 C 97 % 7.06 C
65 05-11-2015 05:20:00 7.6 C 97 % 7.16 C
66 05-11-2015 05:25:00 7.6 C 97 % 7.16 C
67 05-11-2015 05:30:00 7.6 C 97 % 7.16 C
68 05-11-2015 05:35:00 7.6 C 97 % 7.16 C
69 05-11-2015 05:40:00 7.6 C 97 % 7.16 C
70 05-11-2015 05:45:00 7.6 C 97 % 7.16 C
71 05-11-2015 05:50:00 7.6 C 97 % 7.16 C
72 05-11-2015 05:55:00 7.5 C 97 % 7.06 C
73 05-11-2015 06:00:00 7.6 C 97 % 7.16 C
74 05-11-2015 06:05:00 7.6 C 97 % 7.16 C
75 05-11-2015 06:10:00 7.7 C 97 % 7.25 C
Sensor: Nr:Datum:Temp:Feuchte:Taupunkt:
Aussen-T/F 76 05-11-2015 06:15:00 7.7 C 97 % 7.25 C
77 05-11-2015 06:20:00 7.7 C 97 % 7.25 C
78 05-11-2015 06:25:00 7.7 C 97 % 7.25 C
79 05-11-2015 06:30:00 7.7 C 97 % 7.25 C
80 05-11-2015 06:35:00 7.7 C 97 % 7.25 C
81 05-11-2015 06:40:00 7.7 C 97 % 7.25 C
82 05-11-2015 06:45:00 7.8 C 97 % 7.35 C
83 05-11-2015 06:50:00 7.8 C 97 % 7.35 C
84 05-11-2015 06:55:00 7.8 C 97 % 7.35 C
85 05-11-2015 07:00:00 7.7 C 97 % 7.25 C
86 05-11-2015 07:05:00 7.7 C 97 % 7.25 C
87 05-11-2015 07:10:00 7.6 C 97 % 7.16 C
88 05-11-2015 07:15:00 7.6 C 97 % 7.16 C
89 05-11-2015 07:20:00 7.6 C 97 % 7.16 C
90 05-11-2015 07:25:00 7.6 C 97 % 7.16 C
91 05-11-2015 07:30:00 7.6 C 97 % 7.16 C
92 05-11-2015 07:35:00 7.6 C 97 % 7.16 C
93 05-11-2015 07:40:00 7.5 C 97 % 7.06 C
94 05-11-2015 07:45:00 7.4 C 97 % 6.96 C
95 05-11-2015 07:50:00 7.3 C 97 % 6.86 C
96 05-11-2015 07:55:00 7.3 C 97 % 6.86 C
97 05-11-2015 08:00:00 7.3 C 97 % 6.86 C
98 05-11-2015 08:05:00 7.3 C 97 % 6.86 C
99 05-11-2015 08:10:00 7.3 C 97 % 6.86 C
100 05-11-2015 08:15:00 7.5 C 97 % 7.06 C
Sensor: Nr:Datum:Temp:Feuchte:Taupunkt:
Aussen-T/F 101 05-11-2015 08:20:00 7.6 C 97 % 7.16 C
102 05-11-2015 08:25:00 7.7 C 97 % 7.25 C
103 05-11-2015 08:30:00 7.8 C 97 % 7.35 C
104 05-11-2015 08:35:00 7.9 C 97 % 7.45 C
105 05-11-2015 08:40:00 8 C 97 % 7.55 C
106 05-11-2015 08:45:00 8.1 C 97 % 7.65 C
107 05-11-2015 08:50:00 8.1 C 97 % 7.65 C
108 05-11-2015 08:55:00 8.1 C 97 % 7.65 C
109 05-11-2015 09:00:00 8.1 C 97 % 7.65 C
110 05-11-2015 09:05:00 8.2 C 97 % 7.75 C
111 05-11-2015 09:10:00 8.2 C 97 % 7.75 C
112 05-11-2015 09:15:00 8.2 C 97 % 7.75 C
113 05-11-2015 09:20:00 8.3 C 97 % 7.85 C
114 05-11-2015 09:25:00 8.3 C 97 % 7.85 C
115 05-11-2015 09:30:00 8.3 C 97 % 7.85 C
116 05-11-2015 09:35:00 8.4 C 97 % 7.95 C
117 05-11-2015 09:40:00 8.4 C 97 % 7.95 C
118 05-11-2015 09:45:00 8.4 C 97 % 7.95 C
119 05-11-2015 09:50:00 8.3 C 97 % 7.85 C
120 05-11-2015 09:55:00 8.4 C 97 % 7.95 C
121 05-11-2015 10:00:00 8.4 C 97 % 7.95 C
122 05-11-2015 10:05:00 8.4 C 97 % 7.95 C
123 05-11-2015 10:10:00 8.4 C 97 % 7.95 C
124 05-11-2015 10:15:00 8.4 C 97 % 7.95 C
125 05-11-2015 10:20:00 8.4 C 97 % 7.95 C
Sensor: Nr:Datum:Temp:Feuchte:Taupunkt:
Aussen-T/F 126 05-11-2015 10:25:00 8.5 C 97 % 8.05 C
127 05-11-2015 10:30:00 8.5 C 98 % 8.2 C
128 05-11-2015 10:35:00 8.6 C 98 % 8.3 C
129 05-11-2015 10:40:00 8.6 C 98 % 8.3 C
130 05-11-2015 10:45:00 8.6 C 98 % 8.3 C
131 05-11-2015 10:50:00 8.6 C 98 % 8.3 C
132 05-11-2015 10:55:00 8.6 C 98 % 8.3 C
133 05-11-2015 11:00:00 8.7 C 98 % 8.4 C
134 05-11-2015 11:05:00 8.7 C 98 % 8.4 C
135 05-11-2015 11:10:00 8.8 C 98 % 8.5 C
136 05-11-2015 11:15:00 8.9 C 98 % 8.6 C
137 05-11-2015 11:20:00 9.2 C 98 % 8.9 C
138 05-11-2015 11:25:00 9.3 C 98 % 9 C
139 05-11-2015 11:30:00 9.6 C 98 % 9.3 C
140 05-11-2015 11:35:00 9.8 C 98 % 9.5 C
141 05-11-2015 11:40:00 9.9 C 98 % 9.6 C
142 05-11-2015 11:45:00 9.9 C 98 % 9.6 C
143 05-11-2015 11:50:00 10.1 C 98 % 9.8 C
144 05-11-2015 11:55:00 10.2 C 98 % 9.9 C
145 05-11-2015 12:00:00 10.3 C 98 % 10 C
146 05-11-2015 12:05:00 10.3 C 98 % 10 C
147 05-11-2015 12:10:00 10.4 C 98 % 10.1 C
148 05-11-2015 12:15:00 10.5 C 98 % 10.2 C
149 05-11-2015 12:20:00 10.6 C 98 % 10.3 C
150 05-11-2015 12:25:00 10.7 C 98 % 10.4 C
Sensor: Nr:Datum:Temp:Feuchte:Taupunkt:
Aussen-T/F 151 05-11-2015 12:30:00 10.8 C 98 % 10.5 C
152 05-11-2015 12:35:00 10.9 C 98 % 10.6 C
153 05-11-2015 12:40:00 11 C 98 % 10.7 C
154 05-11-2015 12:45:00 11.1 C 98 % 10.8 C
155 05-11-2015 12:50:00 11.2 C 98 % 10.9 C
156 05-11-2015 12:55:00 11.3 C 98 % 11 C
157 05-11-2015 13:00:00 11.4 C 98 % 11.1 C
158 05-11-2015 13:05:00 11.5 C 98 % 11.2 C
159 05-11-2015 13:10:00 11.6 C 98 % 11.29 C
160 05-11-2015 13:15:00 11.7 C 98 % 11.39 C
161 05-11-2015 13:20:00 11.9 C 98 % 11.59 C
162 05-11-2015 13:25:00 12 C 98 % 11.69 C
163 05-11-2015 13:30:00 12.1 C 98 % 11.79 C
164 05-11-2015 13:35:00 12.2 C 98 % 11.89 C
165 05-11-2015 13:40:00 12.3 C 98 % 11.99 C
166 05-11-2015 13:45:00 12.6 C 98 % 12.29 C
167 05-11-2015 13:50:00 12.7 C 98 % 12.39 C
168 05-11-2015 13:55:00 12.8 C 98 % 12.49 C
169 05-11-2015 14:00:00 12.8 C 98 % 12.49 C
170 05-11-2015 14:05:00 12.9 C 98 % 12.59 C
171 05-11-2015 14:10:00 13.1 C 98 % 12.79 C
172 05-11-2015 14:15:00 13.2 C 98 % 12.89 C
173 05-11-2015 14:20:00 13.4 C 98 % 13.09 C
174 05-11-2015 14:25:00 13.6 C 98 % 13.29 C
175 05-11-2015 14:30:00 13.7 C 97 % 13.23 C
Sensor: Nr:Datum:Temp:Feuchte:Taupunkt:
Aussen-T/F 176 05-11-2015 14:35:00 13.8 C 97 % 13.33 C
177 05-11-2015 14:40:00 13.9 C 97 % 13.43 C
178 05-11-2015 14:45:00 14.1 C 97 % 13.63 C
179 05-11-2015 14:50:00 14.2 C 97 % 13.73 C
180 05-11-2015 14:55:00 14.3 C 96 % 13.67 C
181 05-11-2015 15:00:00 14.4 C 95 % 13.61 C
182 05-11-2015 15:05:00 14.6 C 95 % 13.81 C
183 05-11-2015 15:10:00 14.7 C 94 % 13.74 C
184 05-11-2015 15:15:00 14.8 C 93 % 13.68 C
185 05-11-2015 15:20:00 14.8 C 92 % 13.51 C
186 05-11-2015 15:25:00 14.8 C 91 % 13.35 C
187 05-11-2015 15:30:00 14.8 C 91 % 13.35 C
188 05-11-2015 15:35:00 14.8 C 91 % 13.35 C
189 05-11-2015 15:40:00 14.9 C 90 % 13.28 C
190 05-11-2015 15:45:00 14.9 C 90 % 13.28 C
191 05-11-2015 15:50:00 14.9 C 90 % 13.28 C
192 05-11-2015 15:55:00 14.9 C 90 % 13.28 C
193 05-11-2015 16:00:00 15 C 90 % 13.37 C
194 05-11-2015 16:05:00 15 C 89 % 13.2 C
195 05-11-2015 16:10:00 15 C 89 % 13.2 C
196 05-11-2015 16:15:00 15 C 89 % 13.2 C
197 05-11-2015 16:20:00 14.9 C 88 % 12.93 C
198 05-11-2015 16:25:00 14.8 C 88 % 12.83 C
199 05-11-2015 16:30:00 14.6 C 88 % 12.64 C
200 05-11-2015 16:35:00 14.5 C 88 % 12.54 C
Sensor: Nr:Datum:Temp:Feuchte:Taupunkt:
Aussen-T/F 201 05-11-2015 16:40:00 14.4 C 88 % 12.44 C
202 05-11-2015 16:45:00 14.3 C 89 % 12.51 C
203 05-11-2015 16:50:00 14.2 C 89 % 12.41 C
204 05-11-2015 16:55:00 14.1 C 89 % 12.32 C
205 05-11-2015 17:00:00 13.9 C 89 % 12.12 C
206 05-11-2015 17:05:00 13.7 C 90 % 12.09 C
207 05-11-2015 17:10:00 13.6 C 90 % 11.99 C
208 05-11-2015 17:15:00 13.6 C 90 % 11.99 C
209 05-11-2015 17:20:00 13.4 C 91 % 11.96 C
210 05-11-2015 17:25:00 13.3 C 91 % 11.86 C
211 05-11-2015 17:30:00 13.3 C 91 % 11.86 C
212 05-11-2015 17:35:00 13.2 C 91 % 11.76 C
213 05-11-2015 17:40:00 13.1 C 91 % 11.67 C
214 05-11-2015 17:45:00 13.1 C 92 % 11.83 C
215 05-11-2015 17:50:00 13.1 C 92 % 11.83 C
216 05-11-2015 17:55:00 12.9 C 92 % 11.63 C
217 05-11-2015 18:00:00 12.9 C 92 % 11.63 C
218 05-11-2015 18:05:00 12.8 C 92 % 11.53 C
219 05-11-2015 18:10:00 12.8 C 92 % 11.53 C
220 05-11-2015 18:15:00 12.8 C 92 % 11.53 C
221 05-11-2015 18:20:00 12.8 C 92 % 11.53 C
222 05-11-2015 18:25:00 12.9 C 92 % 11.63 C
223 05-11-2015 18:30:00 12.9 C 92 % 11.63 C
224 05-11-2015 18:35:00 12.9 C 91 % 11.47 C
225 05-11-2015 18:40:00 12.9 C 91 % 11.47 C
Sensor: Nr:Datum:Temp:Feuchte:Taupunkt:
Aussen-T/F 226 05-11-2015 18:45:00 13 C 91 % 11.57 C
227 05-11-2015 18:50:00 13.1 C 91 % 11.67 C
228 05-11-2015 18:55:00 13.1 C 91 % 11.67 C
229 05-11-2015 19:00:00 13 C 91 % 11.57 C
230 05-11-2015 19:05:00 12.8 C 91 % 11.37 C
231 05-11-2015 19:10:00 12.8 C 91 % 11.37 C
232 05-11-2015 19:15:00 12.7 C 91 % 11.27 C
233 05-11-2015 19:20:00 12.6 C 92 % 11.34 C
234 05-11-2015 19:25:00 12.5 C 92 % 11.24 C
235 05-11-2015 19:30:00 12.4 C 92 % 11.14 C
236 05-11-2015 19:35:00 12.4 C 92 % 11.14 C
237 05-11-2015 19:40:00 12.3 C 92 % 11.04 C
238 05-11-2015 19:45:00 12.2 C 92 % 10.94 C
239 05-11-2015 19:50:00 12.2 C 93 % 11.1 C
240 05-11-2015 19:55:00 12.2 C 93 % 11.1 C
241 05-11-2015 20:00:00 12.1 C 93 % 11 C
242 05-11-2015 20:05:00 12.1 C 93 % 11 C
243 05-11-2015 20:10:00 12 C 93 % 10.9 C
244 05-11-2015 20:15:00 12 C 93 % 10.9 C
245 05-11-2015 20:20:00 11.9 C 93 % 10.81 C
246 05-11-2015 20:25:00 11.9 C 93 % 10.81 C
247 05-11-2015 20:30:00 11.9 C 94 % 10.97 C
248 05-11-2015 20:35:00 11.9 C 93 % 10.81 C
249 05-11-2015 20:40:00 11.8 C 93 % 10.71 C
250 05-11-2015 20:45:00 11.8 C 93 % 10.71 C
Sensor: Nr:Datum:Temp:Feuchte:Taupunkt:
Aussen-T/F 251 05-11-2015 20:50:00 11.7 C 93 % 10.61 C
252 05-11-2015 20:55:00 11.7 C 94 % 10.77 C
253 05-11-2015 21:00:00 11.7 C 94 % 10.77 C
254 05-11-2015 21:05:00 11.7 C 94 % 10.77 C
255 05-11-2015 21:10:00 11.7 C 94 % 10.77 C
256 05-11-2015 21:15:00 11.7 C 94 % 10.77 C
257 05-11-2015 21:20:00 11.7 C 94 % 10.77 C
258 05-11-2015 21:25:00 11.6 C 94 % 10.67 C
259 05-11-2015 21:30:00 11.6 C 94 % 10.67 C
260 05-11-2015 21:35:00 11.6 C 94 % 10.67 C
261 05-11-2015 21:40:00 11.6 C 94 % 10.67 C
262 05-11-2015 21:45:00 11.5 C 94 % 10.57 C
263 05-11-2015 21:50:00 11.5 C 94 % 10.57 C
264 05-11-2015 21:55:00 11.5 C 94 % 10.57 C
265 05-11-2015 22:00:00 11.4 C 94 % 10.47 C
266 05-11-2015 22:05:00 11.3 C 94 % 10.37 C
267 05-11-2015 22:10:00 11.3 C 94 % 10.37 C
268 05-11-2015 22:15:00 11.3 C 95 % 10.53 C
269 05-11-2015 22:20:00 11.3 C 95 % 10.53 C
270 05-11-2015 22:25:00 11.3 C 95 % 10.53 C
271 05-11-2015 22:30:00 11.2 C 94 % 10.27 C
272 05-11-2015 22:35:00 11.2 C 95 % 10.43 C
273 05-11-2015 22:40:00 11.2 C 95 % 10.43 C
274 05-11-2015 22:45:00 11.2 C 95 % 10.43 C
275 05-11-2015 22:50:00 11.2 C 95 % 10.43 C
Sensor: Nr:Datum:Temp:Feuchte:Taupunkt:
Aussen-T/F 276 05-11-2015 22:55:00 11.2 C 95 % 10.43 C
277 05-11-2015 23:00:00 11.2 C 95 % 10.43 C
278 05-11-2015 23:05:00 11.2 C 95 % 10.43 C
279 05-11-2015 23:10:00 11.2 C 95 % 10.43 C
280 05-11-2015 23:15:00 11.2 C 95 % 10.43 C
281 05-11-2015 23:20:00 11.2 C 95 % 10.43 C
282 05-11-2015 23:25:00 11.2 C 95 % 10.43 C
283 05-11-2015 23:30:00 11.2 C 95 % 10.43 C
284 05-11-2015 23:35:00 11.2 C 95 % 10.43 C
285 05-11-2015 23:40:00 11.2 C 95 % 10.43 C
286 05-11-2015 23:45:00 11.2 C 95 % 10.43 C
287 05-11-2015 23:50:00 11.2 C 95 % 10.43 C
288 05-11-2015 23:55:00 11.2 C 95 % 10.43 C

Legende:
   Min
   Max


Maximal/Minimal-Werte vom 05.11.2015 - 05.11.2015

Sensor Min Max Avg
Temp
(Aussen-T/F)
7.3 °C
05-11-2015  07:50:00
15 °C
05-11-2015  16:00:00
10.38 °C
Feuchte
(Aussen-T/F)
88 %
05-11-2015  16:20:00
98 %
05-11-2015  10:30:00
95.26 %
Taupunkt
(Aussen-T/F)
6.86 C
05-11-2015  07:50:00
13.81 C
05-11-2015  15:05:00
9.61 C

Die Daten stammen von einer Davis Vantage Pro 2 Wetter-Station und werden unter Linux mit der Software wview2wettercgi und aufbereitet. Alle Angaben erfolgen ohne Gewähr für ihre Vollständigkeit oder Richtigkeit.
Kontakt: Rainer Krienke krienke@uni-koblenz.de . Meine Webseiten an der Uni Koblenz oder privat.
Version: $Revision: 0.78 $